sensor_id;sensor_type;location;lat;lon;timestamp;P1;durP1;ratioP1;P2;durP2;ratioP2
75061;SDS011;63641;46.526;24.612;2022-10-31T00:01:11;197.50;;;186.40;;
75061;SDS011;63641;46.526;24.612;2022-10-31T00:03:39;200.25;;;189.32;;
75061;SDS011;63641;46.526;24.612;2022-10-31T00:06:06;211.70;;;200.27;;
75061;SDS011;63641;46.526;24.612;2022-10-31T00:08:33;209.93;;;198.38;;
75061;SDS011;63641;46.526;24.612;2022-10-31T00:11:00;197.10;;;185.95;;
75061;SDS011;63641;46.526;24.612;2022-10-31T00:13:27;210.93;;;199.63;;
75061;SDS011;63641;46.526;24.612;2022-10-31T00:15:53;206.00;;;194.90;;
75061;SDS011;63641;46.526;24.612;2022-10-31T00:18:20;202.48;;;191.95;;
75061;SDS011;63641;46.526;24.612;2022-10-31T00:20:47;206.82;;;195.52;;
75061;SDS011;63641;46.526;24.612;2022-10-31T00:23:13;172.75;;;163.15;;
75061;SDS011;63641;46.526;24.612;2022-10-31T00:25:40;160.23;;;151.48;;
75061;SDS011;63641;46.526;24.612;2022-10-31T00:28:07;145.02;;;136.35;;
75061;SDS011;63641;46.526;24.612;2022-10-31T00:30:38;128.32;;;120.35;;
75061;SDS011;63641;46.526;24.612;2022-10-31T00:33:05;135.98;;;127.45;;
75061;SDS011;63641;46.526;24.612;2022-10-31T00:35:32;165.55;;;155.90;;
75061;SDS011;63641;46.526;24.612;2022-10-31T00:37:58;165.82;;;156.30;;
75061;SDS011;63641;46.526;24.612;2022-10-31T00:40:25;182.82;;;172.45;;
75061;SDS011;63641;46.526;24.612;2022-10-31T00:42:52;156.68;;;148.07;;
75061;SDS011;63641;46.526;24.612;2022-10-31T00:45:19;167.63;;;158.18;;
75061;SDS011;63641;46.526;24.612;2022-10-31T00:47:47;145.88;;;137.25;;
75061;SDS011;63641;46.526;24.612;2022-10-31T00:50:13;145.48;;;136.88;;
75061;SDS011;63641;46.526;24.612;2022-10-31T00:52:40;145.70;;;137.40;;
75061;SDS011;63641;46.526;24.612;2022-10-31T00:55:07;128.88;;;121.35;;
75061;SDS011;63641;46.526;24.612;2022-10-31T00:57:33;118.50;;;111.50;;
75061;SDS011;63641;46.526;24.612;2022-10-31T01:00:00;128.40;;;120.75;;
75061;SDS011;63641;46.526;24.612;2022-10-31T01:02:27;113.65;;;107.28;;
75061;SDS011;63641;46.526;24.612;2022-10-31T01:04:54;123.93;;;116.53;;
75061;SDS011;63641;46.526;24.612;2022-10-31T01:07:21;114.45;;;107.72;;
75061;SDS011;63641;46.526;24.612;2022-10-31T01:09:48;111.40;;;104.80;;
75061;SDS011;63641;46.526;24.612;2022-10-31T01:12:15;85.43;;;79.38;;
75061;SDS011;63641;46.526;24.612;2022-10-31T01:14:42;95.78;;;89.68;;
75061;SDS011;63641;46.526;24.612;2022-10-31T01:17:11;75.53;;;70.25;;
75061;SDS011;63641;46.526;24.612;2022-10-31T01:19:38;80.60;;;75.07;;
75061;SDS011;63641;46.526;24.612;2022-10-31T01:22:05;71.60;;;66.15;;
75061;SDS011;63641;46.526;24.612;2022-10-31T01:24:32;80.40;;;74.95;;
75061;SDS011;63641;46.526;24.612;2022-10-31T01:26:58;76.40;;;71.05;;
75061;SDS011;63641;46.526;24.612;2022-10-31T01:29:25;79.40;;;73.55;;
75061;SDS011;63641;46.526;24.612;2022-10-31T01:31:52;95.30;;;89.30;;
75061;SDS011;63641;46.526;24.612;2022-10-31T01:34:19;93.85;;;87.78;;
75061;SDS011;63641;46.526;24.612;2022-10-31T01:36:46;107.25;;;100.70;;
75061;SDS011;63641;46.526;24.612;2022-10-31T01:39:17;108.90;;;102.07;;
75061;SDS011;63641;46.526;24.612;2022-10-31T01:41:50;98.88;;;92.68;;
75061;SDS011;63641;46.526;24.612;2022-10-31T01:46:50;113.53;;;106.50;;
75061;SDS011;63641;46.526;24.612;2022-10-31T01:49:21;98.95;;;93.30;;
75061;SDS011;63641;46.526;24.612;2022-10-31T01:51:56;126.13;;;119.13;;
75061;SDS011;63641;46.526;24.612;2022-10-31T01:54:28;119.90;;;112.55;;
75061;SDS011;63641;46.526;24.612;2022-10-31T01:57:01;115.28;;;108.47;;
75061;SDS011;63641;46.526;24.612;2022-10-31T01:59:30;132.95;;;124.75;;
75061;SDS011;63641;46.526;24.612;2022-10-31T02:02:00;132.43;;;125.13;;
75061;SDS011;63641;46.526;24.612;2022-10-31T02:04:27;131.15;;;123.47;;
75061;SDS011;63641;46.526;24.612;2022-10-31T02:06:57;140.15;;;132.73;;
75061;SDS011;63641;46.526;24.612;2022-10-31T02:09:29;132.20;;;124.57;;
75061;SDS011;63641;46.526;24.612;2022-10-31T02:11:58;151.10;;;141.90;;
75061;SDS011;63641;46.526;24.612;2022-10-31T02:14:26;144.93;;;137.13;;
75061;SDS011;63641;46.526;24.612;2022-10-31T02:16:55;153.43;;;144.88;;
75061;SDS011;63641;46.526;24.612;2022-10-31T02:22:14;163.98;;;154.38;;
75061;SDS011;63641;46.526;24.612;2022-10-31T02:24:55;166.88;;;157.63;;
75061;SDS011;63641;46.526;24.612;2022-10-31T02:33:48;157.82;;;148.93;;
75061;SDS011;63641;46.526;24.612;2022-10-31T02:36:29;154.15;;;145.55;;
75061;SDS011;63641;46.526;24.612;2022-10-31T02:39:14;165.63;;;156.82;;
75061;SDS011;63641;46.526;24.612;2022-10-31T02:44:57;158.05;;;149.88;;
75061;SDS011;63641;46.526;24.612;2022-10-31T02:47:45;165.75;;;156.40;;
75061;SDS011;63641;46.526;24.612;2022-10-31T02:50:21;157.45;;;148.75;;
75061;SDS011;63641;46.526;24.612;2022-10-31T02:52:52;175.35;;;165.10;;
75061;SDS011;63641;46.526;24.612;2022-10-31T02:57:49;144.68;;;134.88;;
75061;SDS011;63641;46.526;24.612;2022-10-31T03:00:23;150.88;;;141.38;;
75061;SDS011;63641;46.526;24.612;2022-10-31T03:08:03;145.18;;;135.27;;
75061;SDS011;63641;46.526;24.612;2022-10-31T03:15:50;138.05;;;128.30;;
75061;SDS011;63641;46.526;24.612;2022-10-31T03:20:55;133.32;;;123.63;;
75061;SDS011;63641;46.526;24.612;2022-10-31T03:23:27;130.05;;;121.70;;
75061;SDS011;63641;46.526;24.612;2022-10-31T03:25:56;122.85;;;113.40;;
75061;SDS011;63641;46.526;24.612;2022-10-31T03:28:25;129.85;;;120.80;;
75061;SDS011;63641;46.526;24.612;2022-10-31T03:31:00;117.32;;;108.28;;
75061;SDS011;63641;46.526;24.612;2022-10-31T03:33:33;110.82;;;101.90;;
75061;SDS011;63641;46.526;24.612;2022-10-31T03:36:02;115.03;;;106.15;;
75061;SDS011;63641;46.526;24.612;2022-10-31T03:38:32;114.57;;;105.95;;
75061;SDS011;63641;46.526;24.612;2022-10-31T03:41:01;107.35;;;99.32;;
75061;SDS011;63641;46.526;24.612;2022-10-31T03:43:32;106.35;;;98.03;;
75061;SDS011;63641;46.526;24.612;2022-10-31T03:46:06;117.03;;;108.22;;
75061;SDS011;63641;46.526;24.612;2022-10-31T03:48:34;115.68;;;107.13;;
75061;SDS011;63641;46.526;24.612;2022-10-31T03:53:38;105.88;;;97.40;;
75061;SDS011;63641;46.526;24.612;2022-10-31T03:56:29;93.10;;;85.75;;
75061;SDS011;63641;46.526;24.612;2022-10-31T03:59:05;104.70;;;97.05;;
75061;SDS011;63641;46.526;24.612;2022-10-31T04:01:38;90.22;;;82.65;;
75061;SDS011;63641;46.526;24.612;2022-10-31T04:04:09;131.07;;;121.78;;
75061;SDS011;63641;46.526;24.612;2022-10-31T04:06:38;117.28;;;108.82;;
75061;SDS011;63641;46.526;24.612;2022-10-31T04:09:07;96.03;;;88.10;;
75061;SDS011;63641;46.526;24.612;2022-10-31T04:11:36;112.25;;;103.93;;
75061;SDS011;63641;46.526;24.612;2022-10-31T04:14:08;107.20;;;98.97;;
75061;SDS011;63641;46.526;24.612;2022-10-31T04:16:39;121.45;;;112.55;;
75061;SDS011;63641;46.526;24.612;2022-10-31T04:19:09;125.88;;;117.28;;
75061;SDS011;63641;46.526;24.612;2022-10-31T04:21:37;130.77;;;121.57;;
75061;SDS011;63641;46.526;24.612;2022-10-31T04:24:04;118.13;;;109.10;;
75061;SDS011;63641;46.526;24.612;2022-10-31T04:26:31;128.15;;;119.45;;
75061;SDS011;63641;46.526;24.612;2022-10-31T04:28:58;128.68;;;119.80;;
75061;SDS011;63641;46.526;24.612;2022-10-31T04:31:24;130.77;;;121.13;;
75061;SDS011;63641;46.526;24.612;2022-10-31T04:33:51;121.05;;;111.93;;
75061;SDS011;63641;46.526;24.612;2022-10-31T04:36:17;129.40;;;119.20;;
75061;SDS011;63641;46.526;24.612;2022-10-31T04:38:44;130.02;;;120.32;;
75061;SDS011;63641;46.526;24.612;2022-10-31T04:41:11;130.57;;;120.90;;
75061;SDS011;63641;46.526;24.612;2022-10-31T04:43:38;131.85;;;123.10;;
75061;SDS011;63641;46.526;24.612;2022-10-31T04:46:05;137.60;;;127.50;;
75061;SDS011;63641;46.526;24.612;2022-10-31T04:48:31;137.10;;;127.47;;
75061;SDS011;63641;46.526;24.612;2022-10-31T04:51:01;143.68;;;134.07;;
75061;SDS011;63641;46.526;24.612;2022-10-31T04:53:29;148.85;;;138.95;;
75061;SDS011;63641;46.526;24.612;2022-10-31T04:55:57;138.77;;;128.38;;
75061;SDS011;63641;46.526;24.612;2022-10-31T04:58:26;133.90;;;123.50;;
75061;SDS011;63641;46.526;24.612;2022-10-31T05:00:53;136.70;;;126.25;;
75061;SDS011;63641;46.526;24.612;2022-10-31T05:03:21;139.63;;;128.95;;
75061;SDS011;63641;46.526;24.612;2022-10-31T05:05:48;144.82;;;134.52;;
75061;SDS011;63641;46.526;24.612;2022-10-31T05:08:15;141.48;;;131.70;;
75061;SDS011;63641;46.526;24.612;2022-10-31T05:10:42;145.77;;;135.60;;
75061;SDS011;63641;46.526;24.612;2022-10-31T05:13:09;152.57;;;142.13;;
75061;SDS011;63641;46.526;24.612;2022-10-31T05:15:37;138.32;;;128.75;;
75061;SDS011;63641;46.526;24.612;2022-10-31T05:18:03;145.15;;;135.52;;
75061;SDS011;63641;46.526;24.612;2022-10-31T05:20:30;144.55;;;135.18;;
75061;SDS011;63641;46.526;24.612;2022-10-31T05:22:57;145.27;;;135.55;;
75061;SDS011;63641;46.526;24.612;2022-10-31T05:25:25;134.30;;;124.80;;
75061;SDS011;63641;46.526;24.612;2022-10-31T05:27:54;137.80;;;128.40;;
75061;SDS011;63641;46.526;24.612;2022-10-31T05:30:24;144.80;;;135.18;;
75061;SDS011;63641;46.526;24.612;2022-10-31T05:32:52;146.25;;;137.40;;
75061;SDS011;63641;46.526;24.612;2022-10-31T05:35:20;149.35;;;140.02;;
75061;SDS011;63641;46.526;24.612;2022-10-31T05:37:58;94.22;;;87.18;;
75061;SDS011;63641;46.526;24.612;2022-10-31T05:40:26;68.00;;;62.45;;
75061;SDS011;63641;46.526;24.612;2022-10-31T05:42:54;60.85;;;55.00;;
75061;SDS011;63641;46.526;24.612;2022-10-31T05:45:22;71.88;;;65.68;;
75061;SDS011;63641;46.526;24.612;2022-10-31T05:47:53;65.35;;;58.97;;
75061;SDS011;63641;46.526;24.612;2022-10-31T05:50:25;52.05;;;46.13;;
75061;SDS011;63641;46.526;24.612;2022-10-31T05:52:54;53.00;;;47.45;;
75061;SDS011;63641;46.526;24.612;2022-10-31T05:55:22;67.82;;;61.58;;
75061;SDS011;63641;46.526;24.612;2022-10-31T05:57:49;56.88;;;51.50;;
75061;SDS011;63641;46.526;24.612;2022-10-31T06:00:16;52.80;;;47.17;;
75061;SDS011;63641;46.526;24.612;2022-10-31T06:02:44;47.25;;;42.88;;
75061;SDS011;63641;46.526;24.612;2022-10-31T06:05:11;52.08;;;47.08;;
75061;SDS011;63641;46.526;24.612;2022-10-31T06:07:38;60.55;;;54.63;;
75061;SDS011;63641;46.526;24.612;2022-10-31T06:10:06;52.25;;;46.65;;
75061;SDS011;63641;46.526;24.612;2022-10-31T06:12:34;55.15;;;50.13;;
75061;SDS011;63641;46.526;24.612;2022-10-31T06:15:04;54.40;;;48.97;;
75061;SDS011;63641;46.526;24.612;2022-10-31T06:17:32;55.00;;;49.60;;
75061;SDS011;63641;46.526;24.612;2022-10-31T06:20:00;52.95;;;47.80;;
75061;SDS011;63641;46.526;24.612;2022-10-31T06:22:27;51.72;;;46.10;;
75061;SDS011;63641;46.526;24.612;2022-10-31T06:24:54;55.22;;;49.67;;
75061;SDS011;63641;46.526;24.612;2022-10-31T06:27:21;51.15;;;46.35;;
75061;SDS011;63641;46.526;24.612;2022-10-31T06:29:48;52.88;;;47.97;;
75061;SDS011;63641;46.526;24.612;2022-10-31T06:32:15;51.38;;;46.28;;
75061;SDS011;63641;46.526;24.612;2022-10-31T06:34:42;50.95;;;46.00;;
75061;SDS011;63641;46.526;24.612;2022-10-31T06:37:10;50.70;;;46.00;;
75061;SDS011;63641;46.526;24.612;2022-10-31T06:39:38;53.78;;;48.88;;
75061;SDS011;63641;46.526;24.612;2022-10-31T06:42:05;98.65;;;92.13;;
75061;SDS011;63641;46.526;24.612;2022-10-31T06:44:32;107.22;;;100.63;;
75061;SDS011;63641;46.526;24.612;2022-10-31T06:46:59;107.93;;;100.40;;
75061;SDS011;63641;46.526;24.612;2022-10-31T06:49:26;92.15;;;86.00;;
75061;SDS011;63641;46.526;24.612;2022-10-31T06:51:52;91.88;;;86.05;;
75061;SDS011;63641;46.526;24.612;2022-10-31T06:54:19;102.40;;;95.45;;
75061;SDS011;63641;46.526;24.612;2022-10-31T06:56:46;100.50;;;93.63;;
75061;SDS011;63641;46.526;24.612;2022-10-31T06:59:16;100.05;;;93.45;;
75061;SDS011;63641;46.526;24.612;2022-10-31T07:01:43;108.03;;;101.25;;
75061;SDS011;63641;46.526;24.612;2022-10-31T07:04:10;117.97;;;111.20;;
75061;SDS011;63641;46.526;24.612;2022-10-31T07:06:37;108.95;;;102.60;;
75061;SDS011;63641;46.526;24.612;2022-10-31T07:09:04;111.53;;;105.05;;
75061;SDS011;63641;46.526;24.612;2022-10-31T07:11:32;103.88;;;98.35;;
75061;SDS011;63641;46.526;24.612;2022-10-31T07:13:59;98.05;;;92.55;;
75061;SDS011;63641;46.526;24.612;2022-10-31T07:16:25;75.70;;;71.10;;
75061;SDS011;63641;46.526;24.612;2022-10-31T07:18:53;58.97;;;55.05;;
75061;SDS011;63641;46.526;24.612;2022-10-31T07:21:19;82.63;;;78.03;;
75061;SDS011;63641;46.526;24.612;2022-10-31T07:23:49;68.32;;;64.18;;
75061;SDS011;63641;46.526;24.612;2022-10-31T07:26:15;71.43;;;67.05;;
75061;SDS011;63641;46.526;24.612;2022-10-31T07:28:42;59.30;;;55.42;;
75061;SDS011;63641;46.526;24.612;2022-10-31T07:31:09;56.92;;;53.00;;
75061;SDS011;63641;46.526;24.612;2022-10-31T07:33:36;61.40;;;57.70;;
75061;SDS011;63641;46.526;24.612;2022-10-31T07:36:03;69.45;;;65.20;;
75061;SDS011;63641;46.526;24.612;2022-10-31T07:38:29;75.88;;;71.18;;
75061;SDS011;63641;46.526;24.612;2022-10-31T07:40:56;42.03;;;38.58;;
75061;SDS011;63641;46.526;24.612;2022-10-31T07:43:23;23.55;;;20.58;;
75061;SDS011;63641;46.526;24.612;2022-10-31T07:45:52;25.20;;;22.60;;
75061;SDS011;63641;46.526;24.612;2022-10-31T07:48:20;28.15;;;24.98;;
75061;SDS011;63641;46.526;24.612;2022-10-31T07:50:47;28.00;;;25.20;;
75061;SDS011;63641;46.526;24.612;2022-10-31T07:53:14;24.88;;;19.85;;
75061;SDS011;63641;46.526;24.612;2022-10-31T07:55:41;25.38;;;19.70;;
75061;SDS011;63641;46.526;24.612;2022-10-31T07:58:09;22.73;;;20.20;;
75061;SDS011;63641;46.526;24.612;2022-10-31T08:00:38;37.60;;;33.60;;
75061;SDS011;63641;46.526;24.612;2022-10-31T08:03:07;54.03;;;50.03;;
75061;SDS011;63641;46.526;24.612;2022-10-31T08:05:36;72.35;;;67.63;;
75061;SDS011;63641;46.526;24.612;2022-10-31T08:08:03;85.07;;;79.78;;
75061;SDS011;63641;46.526;24.612;2022-10-31T08:10:31;65.32;;;61.03;;
75061;SDS011;63641;46.526;24.612;2022-10-31T08:13:05;43.22;;;39.75;;
75061;SDS011;63641;46.526;24.612;2022-10-31T08:15:37;34.15;;;31.13;;
75061;SDS011;63641;46.526;24.612;2022-10-31T08:18:11;34.78;;;31.83;;
75061;SDS011;63641;46.526;24.612;2022-10-31T08:20:40;34.67;;;31.38;;
75061;SDS011;63641;46.526;24.612;2022-10-31T08:23:08;35.75;;;32.75;;
75061;SDS011;63641;46.526;24.612;2022-10-31T08:25:36;28.27;;;25.52;;
75061;SDS011;63641;46.526;24.612;2022-10-31T08:28:04;37.08;;;33.75;;
75061;SDS011;63641;46.526;24.612;2022-10-31T08:30:33;39.00;;;36.05;;
75061;SDS011;63641;46.526;24.612;2022-10-31T08:35:30;45.92;;;42.42;;
75061;SDS011;63641;46.526;24.612;2022-10-31T08:37:57;41.40;;;37.95;;
75061;SDS011;63641;46.526;24.612;2022-10-31T08:40:25;50.10;;;46.25;;
75061;SDS011;63641;46.526;24.612;2022-10-31T08:43:00;47.30;;;43.80;;
75061;SDS011;63641;46.526;24.612;2022-10-31T08:45:36;71.90;;;67.15;;
75061;SDS011;63641;46.526;24.612;2022-10-31T08:48:04;44.10;;;40.55;;
75061;SDS011;63641;46.526;24.612;2022-10-31T08:50:32;28.85;;;26.15;;
75061;SDS011;63641;46.526;24.612;2022-10-31T08:53:14;32.80;;;29.98;;
75061;SDS011;63641;46.526;24.612;2022-10-31T08:55:46;26.07;;;18.13;;
75061;SDS011;63641;46.526;24.612;2022-10-31T08:58:14;27.13;;;23.98;;
75061;SDS011;63641;46.526;24.612;2022-10-31T09:00:45;29.30;;;26.45;;
75061;SDS011;63641;46.526;24.612;2022-10-31T09:03:31;27.23;;;24.48;;
75061;SDS011;63641;46.526;24.612;2022-10-31T09:05:58;27.17;;;24.35;;
75061;SDS011;63641;46.526;24.612;2022-10-31T09:08:28;28.60;;;26.02;;
75061;SDS011;63641;46.526;24.612;2022-10-31T09:10:56;29.98;;;27.02;;
75061;SDS011;63641;46.526;24.612;2022-10-31T09:13:23;29.10;;;26.05;;
75061;SDS011;63641;46.526;24.612;2022-10-31T09:15:53;31.45;;;28.23;;
75061;SDS011;63641;46.526;24.612;2022-10-31T09:18:22;30.73;;;27.55;;
75061;SDS011;63641;46.526;24.612;2022-10-31T09:20:50;28.63;;;25.55;;
75061;SDS011;63641;46.526;24.612;2022-10-31T09:23:18;29.75;;;26.88;;
75061;SDS011;63641;46.526;24.612;2022-10-31T09:25:49;32.28;;;28.88;;
75061;SDS011;63641;46.526;24.612;2022-10-31T09:28:20;30.90;;;27.33;;
75061;SDS011;63641;46.526;24.612;2022-10-31T09:30:49;29.25;;;25.70;;
75061;SDS011;63641;46.526;24.612;2022-10-31T09:33:18;30.02;;;26.60;;
75061;SDS011;63641;46.526;24.612;2022-10-31T09:35:45;30.23;;;26.58;;
75061;SDS011;63641;46.526;24.612;2022-10-31T09:38:13;28.75;;;25.65;;
75061;SDS011;63641;46.526;24.612;2022-10-31T09:40:43;29.80;;;26.60;;
75061;SDS011;63641;46.526;24.612;2022-10-31T09:51:30;26.95;;;23.98;;
75061;SDS011;63641;46.526;24.612;2022-10-31T09:54:17;27.70;;;24.83;;
75061;SDS011;63641;46.526;24.612;2022-10-31T09:56:47;27.60;;;24.80;;
75061;SDS011;63641;46.526;24.612;2022-10-31T09:59:19;28.92;;;25.55;;
75061;SDS011;63641;46.526;24.612;2022-10-31T10:01:56;31.63;;;28.15;;
75061;SDS011;63641;46.526;24.612;2022-10-31T10:07:08;29.63;;;26.45;;
75061;SDS011;63641;46.526;24.612;2022-10-31T10:09:44;32.50;;;29.20;;
75061;SDS011;63641;46.526;24.612;2022-10-31T10:20:21;27.17;;;23.63;;
75061;SDS011;63641;46.526;24.612;2022-10-31T10:23:13;29.77;;;23.65;;
75061;SDS011;63641;46.526;24.612;2022-10-31T10:25:47;28.52;;;25.60;;
75061;SDS011;63641;46.526;24.612;2022-10-31T10:28:21;27.52;;;24.58;;
75061;SDS011;63641;46.526;24.612;2022-10-31T10:31:06;25.40;;;22.55;;
75061;SDS011;63641;46.526;24.612;2022-10-31T10:33:43;25.33;;;22.70;;
75061;SDS011;63641;46.526;24.612;2022-10-31T10:36:21;28.77;;;26.00;;
75061;SDS011;63641;46.526;24.612;2022-10-31T10:38:57;28.30;;;24.40;;
75061;SDS011;63641;46.526;24.612;2022-10-31T10:41:29;26.60;;;23.17;;
75061;SDS011;63641;46.526;24.612;2022-10-31T10:43:59;24.60;;;22.23;;
75061;SDS011;63641;46.526;24.612;2022-10-31T10:52:01;22.10;;;19.92;;
75061;SDS011;63641;46.526;24.612;2022-10-31T10:57:54;20.80;;;18.90;;
75061;SDS011;63641;46.526;24.612;2022-10-31T11:00:26;21.95;;;19.88;;
75061;SDS011;63641;46.526;24.612;2022-10-31T11:02:54;24.63;;;21.88;;
75061;SDS011;63641;46.526;24.612;2022-10-31T11:07:51;22.65;;;20.40;;
75061;SDS011;63641;46.526;24.612;2022-10-31T11:10:18;25.45;;;22.25;;
75061;SDS011;63641;46.526;24.612;2022-10-31T11:12:58;27.25;;;23.63;;
75061;SDS011;63641;46.526;24.612;2022-10-31T11:17:58;26.15;;;21.70;;
75061;SDS011;63641;46.526;24.612;2022-10-31T11:20:32;23.75;;;21.27;;
75061;SDS011;63641;46.526;24.612;2022-10-31T11:23:03;23.08;;;20.95;;
75061;SDS011;63641;46.526;24.612;2022-10-31T11:25:48;24.02;;;21.70;;
75061;SDS011;63641;46.526;24.612;2022-10-31T11:28:17;24.20;;;21.70;;
75061;SDS011;63641;46.526;24.612;2022-10-31T11:30:47;36.30;;;29.00;;
75061;SDS011;63641;46.526;24.612;2022-10-31T11:33:37;40.00;;;31.20;;
75061;SDS011;63641;46.526;24.612;2022-10-31T11:36:25;40.17;;;31.52;;
75061;SDS011;63641;46.526;24.612;2022-10-31T11:38:53;38.30;;;30.20;;
75061;SDS011;63641;46.526;24.612;2022-10-31T11:41:25;37.67;;;28.98;;
75061;SDS011;63641;46.526;24.612;2022-10-31T11:43:58;36.42;;;30.10;;
75061;SDS011;63641;46.526;24.612;2022-10-31T11:46:35;37.72;;;31.45;;
75061;SDS011;63641;46.526;24.612;2022-10-31T11:51:49;38.33;;;31.52;;
75061;SDS011;63641;46.526;24.612;2022-10-31T11:54:20;35.33;;;29.73;;
75061;SDS011;63641;46.526;24.612;2022-10-31T11:56:54;42.03;;;30.90;;
75061;SDS011;63641;46.526;24.612;2022-10-31T11:59:23;37.47;;;30.27;;
75061;SDS011;63641;46.526;24.612;2022-10-31T12:01:53;37.85;;;31.23;;
75061;SDS011;63641;46.526;24.612;2022-10-31T12:04:29;35.70;;;31.23;;
75061;SDS011;63641;46.526;24.612;2022-10-31T12:07:02;35.05;;;29.25;;
75061;SDS011;63641;46.526;24.612;2022-10-31T12:09:30;34.72;;;29.75;;
75061;SDS011;63641;46.526;24.612;2022-10-31T12:12:10;32.72;;;28.08;;
75061;SDS011;63641;46.526;24.612;2022-10-31T12:17:21;32.67;;;27.25;;
75061;SDS011;63641;46.526;24.612;2022-10-31T12:34:28;37.92;;;31.50;;
75061;SDS011;63641;46.526;24.612;2022-10-31T12:58:40;35.70;;;30.05;;
75061;SDS011;63641;46.526;24.612;2022-10-31T13:01:17;34.38;;;31.13;;
75061;SDS011;63641;46.526;24.612;2022-10-31T13:06:43;31.73;;;28.17;;
75061;SDS011;63641;46.526;24.612;2022-10-31T13:09:17;31.65;;;27.92;;
75061;SDS011;63641;46.526;24.612;2022-10-31T13:11:48;34.60;;;28.55;;
75061;SDS011;63641;46.526;24.612;2022-10-31T13:14:45;27.90;;;25.30;;
75061;SDS011;63641;46.526;24.612;2022-10-31T13:19:51;27.05;;;24.33;;
75061;SDS011;63641;46.526;24.612;2022-10-31T13:22:38;28.27;;;25.27;;
75061;SDS011;63641;46.526;24.612;2022-10-31T13:30:17;30.45;;;27.52;;
75061;SDS011;63641;46.526;24.612;2022-10-31T13:38:13;34.13;;;31.60;;
75061;SDS011;63641;46.526;24.612;2022-10-31T13:40:59;25.42;;;22.92;;
75061;SDS011;63641;46.526;24.612;2022-10-31T13:54:49;25.75;;;23.40;;
75061;SDS011;63641;46.526;24.612;2022-10-31T14:00:22;24.90;;;22.83;;
75061;SDS011;63641;46.526;24.612;2022-10-31T14:02:52;22.70;;;20.67;;
75061;SDS011;63641;46.526;24.612;2022-10-31T14:05:26;25.58;;;23.38;;
75061;SDS011;63641;46.526;24.612;2022-10-31T14:08:00;24.17;;;22.05;;
75061;SDS011;63641;46.526;24.612;2022-10-31T14:10:35;23.80;;;21.67;;
75061;SDS011;63641;46.526;24.612;2022-10-31T14:13:14;22.92;;;20.83;;
75061;SDS011;63641;46.526;24.612;2022-10-31T14:16:20;25.65;;;22.52;;
75061;SDS011;63641;46.526;24.612;2022-10-31T14:19:00;21.30;;;19.45;;
75061;SDS011;63641;46.526;24.612;2022-10-31T14:21:36;24.30;;;21.88;;
75061;SDS011;63641;46.526;24.612;2022-10-31T14:31:57;22.58;;;20.67;;
75061;SDS011;63641;46.526;24.612;2022-10-31T14:40:06;23.90;;;21.83;;
75061;SDS011;63641;46.526;24.612;2022-10-31T14:50:52;24.40;;;22.13;;
75061;SDS011;63641;46.526;24.612;2022-10-31T14:53:23;21.83;;;19.98;;
75061;SDS011;63641;46.526;24.612;2022-10-31T14:55:55;22.40;;;20.52;;
75061;SDS011;63641;46.526;24.612;2022-10-31T14:58:38;23.60;;;21.35;;
75061;SDS011;63641;46.526;24.612;2022-10-31T15:01:23;24.25;;;22.10;;
75061;SDS011;63641;46.526;24.612;2022-10-31T15:03:55;23.77;;;21.73;;
75061;SDS011;63641;46.526;24.612;2022-10-31T15:06:51;22.10;;;20.50;;
75061;SDS011;63641;46.526;24.612;2022-10-31T15:09:32;24.10;;;21.88;;
75061;SDS011;63641;46.526;24.612;2022-10-31T15:12:05;22.63;;;20.77;;
75061;SDS011;63641;46.526;24.612;2022-10-31T15:14:51;23.02;;;21.02;;
75061;SDS011;63641;46.526;24.612;2022-10-31T15:17:19;22.02;;;20.13;;
75061;SDS011;63641;46.526;24.612;2022-10-31T15:19:46;22.67;;;21.00;;
75061;SDS011;63641;46.526;24.612;2022-10-31T15:22:14;24.52;;;22.48;;
75061;SDS011;63641;46.526;24.612;2022-10-31T15:24:43;23.08;;;21.33;;
75061;SDS011;63641;46.526;24.612;2022-10-31T15:27:17;23.30;;;21.55;;
75061;SDS011;63641;46.526;24.612;2022-10-31T15:29:50;23.92;;;21.90;;
75061;SDS011;63641;46.526;24.612;2022-10-31T15:32:28;24.40;;;22.38;;
75061;SDS011;63641;46.526;24.612;2022-10-31T15:34:55;24.17;;;22.27;;
75061;SDS011;63641;46.526;24.612;2022-10-31T15:37:24;22.98;;;21.20;;
75061;SDS011;63641;46.526;24.612;2022-10-31T15:39:52;23.67;;;21.67;;
75061;SDS011;63641;46.526;24.612;2022-10-31T15:42:23;24.88;;;22.80;;
75061;SDS011;63641;46.526;24.612;2022-10-31T15:45:02;26.80;;;24.48;;
75061;SDS011;63641;46.526;24.612;2022-10-31T15:47:32;27.50;;;25.33;;
75061;SDS011;63641;46.526;24.612;2022-10-31T15:50:00;27.85;;;25.45;;
75061;SDS011;63641;46.526;24.612;2022-10-31T15:52:39;26.90;;;24.77;;
75061;SDS011;63641;46.526;24.612;2022-10-31T15:57:42;23.55;;;21.35;;
75061;SDS011;63641;46.526;24.612;2022-10-31T16:00:28;23.83;;;21.67;;
75061;SDS011;63641;46.526;24.612;2022-10-31T16:03:05;24.27;;;22.13;;
75061;SDS011;63641;46.526;24.612;2022-10-31T16:05:34;23.25;;;21.38;;
75061;SDS011;63641;46.526;24.612;2022-10-31T16:08:03;23.10;;;21.17;;
75061;SDS011;63641;46.526;24.612;2022-10-31T16:10:33;23.90;;;21.77;;
75061;SDS011;63641;46.526;24.612;2022-10-31T16:13:01;23.55;;;21.48;;
75061;SDS011;63641;46.526;24.612;2022-10-31T16:15:29;24.13;;;22.02;;
75061;SDS011;63641;46.526;24.612;2022-10-31T16:17:56;22.48;;;20.58;;
75061;SDS011;63641;46.526;24.612;2022-10-31T16:20:27;23.27;;;21.38;;
75061;SDS011;63641;46.526;24.612;2022-10-31T16:22:58;24.73;;;22.63;;
75061;SDS011;63641;46.526;24.612;2022-10-31T16:25:28;24.08;;;22.10;;
75061;SDS011;63641;46.526;24.612;2022-10-31T16:28:13;23.55;;;21.83;;
75061;SDS011;63641;46.526;24.612;2022-10-31T16:30:44;25.20;;;22.75;;
75061;SDS011;63641;46.526;24.612;2022-10-31T16:33:20;24.73;;;22.77;;
75061;SDS011;63641;46.526;24.612;2022-10-31T16:39:01;23.77;;;21.88;;
75061;SDS011;63641;46.526;24.612;2022-10-31T16:41:29;24.85;;;22.70;;
75061;SDS011;63641;46.526;24.612;2022-10-31T16:43:56;24.77;;;22.77;;
75061;SDS011;63641;46.526;24.612;2022-10-31T16:46:26;27.75;;;25.25;;
75061;SDS011;63641;46.526;24.612;2022-10-31T16:48:53;24.38;;;22.33;;
75061;SDS011;63641;46.526;24.612;2022-10-31T16:51:20;25.20;;;22.83;;
75061;SDS011;63641;46.526;24.612;2022-10-31T16:53:47;23.70;;;21.58;;
75061;SDS011;63641;46.526;24.612;2022-10-31T16:56:22;25.35;;;23.08;;
75061;SDS011;63641;46.526;24.612;2022-10-31T16:58:53;25.13;;;22.85;;
75061;SDS011;63641;46.526;24.612;2022-10-31T17:01:20;27.33;;;25.05;;
75061;SDS011;63641;46.526;24.612;2022-10-31T17:03:48;29.48;;;26.73;;
75061;SDS011;63641;46.526;24.612;2022-10-31T17:06:15;27.20;;;24.63;;
75061;SDS011;63641;46.526;24.612;2022-10-31T17:08:42;25.95;;;23.58;;